Time,TemperatureF,DewpointF,PressureIn,WindDirection,WindDirectionDegrees,WindSpeedMPH,WindSpeedGustMPH,Humidity,HourlyPrecipIn,Conditions,Clouds,dailyrainin,SoftwareType,DateUTC
2013-01-22 00:05:00,18.4,15.4,29.72,West,270,6.0,12.0,88,0.00,,,-99.99,WeatherLink 5.5,2013-01-22 05:05:00,
2013-01-22 01:00:00,16.7,12.4,29.72,West,270,7.0,14.0,83,0.00,,,-99.99,WeatherLink 5.5,2013-01-22 06:00:00,
2013-01-22 01:05:00,16.7,12.4,29.72,West,270,7.0,14.0,83,0.00,,,-99.99,WeatherLink 5.5,2013-01-22 06:05:00,
2013-01-22 02:00:00,15.4,10.3,29.75,West,270,6.0,12.0,80,0.00,,,-99.99,WeatherLink 5.5,2013-01-22 07:00:00,
2013-01-22 02:05:00,15.4,10.3,29.75,West,270,6.0,12.0,80,0.00,,,-99.99,WeatherLink 5.5,2013-01-22 07:05:00,
2013-01-22 03:00:00,16.7,11.0,29.76,NW,315,4.0,10.0,78,0.00,,,-99.99,WeatherLink 5.5,2013-01-22 08:00:00,
2013-01-22 03:05:00,16.7,11.0,29.76,NW,315,4.0,10.0,78,0.00,,,-99.99,WeatherLink 5.5,2013-01-22 08:05:00,
2013-01-22 04:00:00,14.9,7.8,29.77,NW,315,3.0,8.0,73,0.00,,,-99.99,WeatherLink 5.5,2013-01-22 09:00:00,
2013-01-22 04:05:00,14.9,7.8,29.77,NW,315,3.0,8.0,73,0.00,,,-99.99,WeatherLink 5.5,2013-01-22 09:05:00,
2013-01-22 05:00:00,14.1,4.8,29.80,NW,315,8.0,18.0,66,0.00,,,-99.99,WeatherLink 5.5,2013-01-22 10:00:00,
2013-01-22 05:05:00,14.1,4.8,29.80,NW,315,8.0,18.0,66,0.00,,,-99.99,WeatherLink 5.5,2013-01-22 10:05:00,
2013-01-22 06:00:00,12.9,0.5,29.84,NW,315,9.0,19.0,57,0.00,,,-99.99,WeatherLink 5.5,2013-01-22 11:00:00,
2013-01-22 06:05:00,12.9,0.5,29.84,NW,315,9.0,19.0,57,0.00,,,-99.99,WeatherLink 5.5,2013-01-22 11:05:00,
2013-01-22 07:00:00,12.4,0.0,29.86,NW,315,8.0,20.0,57,0.00,,,-99.99,WeatherLink 5.5,2013-01-22 12:00:00,
2013-01-22 07:05:00,12.4,0.0,29.86,NW,315,8.0,20.0,57,0.00,,,-99.99,WeatherLink 5.5,2013-01-22 12:05:00,
2013-01-22 08:00:00,14.1,-0.7,29.88,NW,315,5.0,12.0,51,0.00,,,-99.99,WeatherLink 5.5,2013-01-22 13:00:00,
2013-01-22 08:05:00,14.1,-0.7,29.88,NW,315,5.0,12.0,51,0.00,,,-99.99,WeatherLink 5.5,2013-01-22 13:05:00,
2013-01-22 09:00:00,16.4,-3.2,29.90,NW,315,8.0,18.0,41,0.00,,,-99.99,WeatherLink 5.5,2013-01-22 14:00:00,
2013-01-22 09:05:00,16.4,-3.2,29.90,NW,315,8.0,18.0,41,0.00,,,-99.99,WeatherLink 5.5,2013-01-22 14:05:00,
2013-01-22 10:00:00,16.1,-3.0,29.92,West,270,11.0,24.0,42,0.00,,,-99.99,WeatherLink 5.5,2013-01-22 15:00:00,
2013-01-22 10:05:00,16.1,-3.0,29.92,West,270,11.0,24.0,42,0.00,,,-99.99,WeatherLink 5.5,2013-01-22 15:05:00,
2013-01-22 11:00:00,16.9,-2.8,29.91,NW,315,13.0,27.0,41,0.00,,,-99.99,WeatherLink 5.5,2013-01-22 16:00:00,
2013-01-22 11:05:00,16.9,-2.8,29.91,NW,315,13.0,27.0,41,0.00,,,-99.99,WeatherLink 5.5,2013-01-22 16:05:00,
2013-01-22 12:00:00,14.9,-4.6,29.89,NW,315,15.0,30.0,41,0.00,,,-99.99,WeatherLink 5.5,2013-01-22 17:00:00,
2013-01-22 12:05:00,14.9,-4.6,29.89,NW,315,15.0,30.0,41,0.00,,,-99.99,WeatherLink 5.5,2013-01-22 17:05:00,
2013-01-22 13:00:00,15.9,-4.7,29.88,NW,315,16.0,34.0,39,0.00,,,-99.99,WeatherLink 5.5,2013-01-22 18:00:00,
2013-01-22 13:05:00,15.9,-4.7,29.88,NW,315,16.0,34.0,39,0.00,,,-99.99,WeatherLink 5.5,2013-01-22 18:05:00,
2013-01-22 14:00:00,16.5,-7.0,29.89,West,270,16.0,30.0,34,0.00,,,-99.99,WeatherLink 5.5,2013-01-22 19:00:00,
2013-01-22 14:05:00,16.5,-7.0,29.89,West,270,16.0,30.0,34,0.00,,,-99.99,WeatherLink 5.5,2013-01-22 19:05:00,
2013-01-22 15:00:00,17.3,-6.3,29.91,West,270,14.0,29.0,34,0.00,,,-99.99,WeatherLink 5.5,2013-01-22 20:00:00,
2013-01-22 15:05:00,17.3,-6.3,29.91,West,270,14.0,29.0,34,0.00,,,-99.99,WeatherLink 5.5,2013-01-22 20:05:00,
2013-01-22 16:00:00,16.2,-6.7,29.93,West,270,13.0,25.0,35,0.00,,,-99.99,WeatherLink 5.5,2013-01-22 21:00:00,
2013-01-22 16:05:00,16.2,-6.7,29.93,West,270,13.0,25.0,35,0.00,,,-99.99,WeatherLink 5.5,2013-01-22 21:05:00,
2013-01-22 17:00:00,12.4,-7.9,29.96,West,270,13.0,25.0,39,0.00,,,-99.99,WeatherLink 5.5,2013-01-22 22:00:00,
2013-01-22 17:05:00,12.4,-7.9,29.96,West,270,13.0,25.0,39,0.00,,,-99.99,WeatherLink 5.5,2013-01-22 22:05:00,
2013-01-22 18:00:00,10.9,-7.7,30.01,West,270,11.0,26.0,42,0.00,,,-99.99,WeatherLink 5.5,2013-01-22 23:00:00,
2013-01-22 18:05:00,10.9,-7.7,30.01,West,270,11.0,26.0,42,0.00,,,-99.99,WeatherLink 5.5,2013-01-22 23:05:00,
2013-01-22 19:00:00,9.9,-7.2,30.03,West,270,9.0,21.0,45,0.00,,,-99.99,WeatherLink 5.5,2013-01-23 00:00:00,
2013-01-22 19:05:00,9.9,-7.2,30.03,West,270,9.0,21.0,45,0.00,,,-99.99,WeatherLink 5.5,2013-01-23 00:05:00,
2013-01-22 20:00:00,8.6,-7.1,30.04,NW,315,10.0,25.0,48,0.00,,,-99.99,WeatherLink 5.5,2013-01-23 01:00:00,
2013-01-22 20:05:00,8.6,-7.1,30.04,NW,315,10.0,25.0,48,0.00,,,-99.99,WeatherLink 5.5,2013-01-23 01:05:00,
2013-01-22 21:00:00,7.6,-9.4,30.05,West,270,9.0,20.0,45,0.00,,,-99.99,WeatherLink 5.5,2013-01-23 02:00:00,
2013-01-22 21:05:00,7.6,-9.4,30.05,West,270,9.0,20.0,45,0.00,,,-99.99,WeatherLink 5.5,2013-01-23 02:05:00,
2013-01-22 22:00:00,6.7,-7.2,30.07,West,270,10.0,21.0,52,0.00,,,-99.99,WeatherLink 5.5,2013-01-23 03:00:00,
2013-01-22 22:05:00,6.7,-7.2,30.07,West,270,10.0,21.0,52,0.00,,,-99.99,WeatherLink 5.5,2013-01-23 03:05:00,
2013-01-22 23:00:00,5.6,-7.9,30.08,NW,315,8.0,18.0,53,0.00,,,-99.99,WeatherLink 5.5,2013-01-23 04:00:00,
2013-01-22 23:05:00,5.6,-7.9,30.08,NW,315,8.0,18.0,53,0.00,,,-99.99,WeatherLink 5.5,2013-01-23 04:05:00,